createdAt,value
2022-12-25T07:28:17.271Z,-4.85
2022-12-25T09:33:59.905Z,-4.64
2022-12-25T10:29:34.583Z,-4.67
2022-12-25T10:58:53.085Z,-4.61
2022-12-25T13:06:16.641Z,-4.35
2022-12-25T13:08:56.551Z,-4.40
2022-12-25T13:11:26.621Z,-4.34
2022-12-25T13:13:56.710Z,-4.39
2022-12-25T13:16:28.503Z,-4.51
2022-12-25T13:18:57.712Z,-4.63
2022-12-25T13:21:29.390Z,-4.69
2022-12-25T13:23:59.899Z,-4.69
2022-12-25T13:26:29.090Z,-4.72
2022-12-25T13:28:58.692Z,-4.71
2022-12-25T13:31:28.273Z,-4.81
2022-12-25T13:33:59.556Z,-4.81
2022-12-25T13:36:38.544Z,-4.75
2022-12-25T13:39:10.409Z,-4.87
2022-12-25T13:42:01.651Z,-4.84
2022-12-25T13:44:39.450Z,-5.07
2022-12-25T13:47:20.753Z,-4.89
2022-12-25T13:49:56.909Z,-4.97
2022-12-25T13:52:41.114Z,-5.09
2022-12-25T13:55:15.449Z,-5.19
2022-12-25T13:57:57.328Z,-5.27
2022-12-25T14:00:36.652Z,-5.52
2022-12-25T14:03:07.844Z,-5.34
2022-12-25T14:06:04.785Z,-5.39
2022-12-25T14:08:57.090Z,-5.54
2022-12-25T14:11:39.424Z,-5.40
2022-12-25T14:14:22.836Z,-5.55
2022-12-25T14:16:57.552Z,-5.73
2022-12-25T14:19:31.867Z,-5.69
2022-12-25T14:22:03.664Z,-5.62
2022-12-25T14:24:43.254Z,-5.80
2022-12-25T14:27:23.314Z,-5.62
2022-12-25T14:29:57.948Z,-5.49
2022-12-25T14:32:29.955Z,-5.45
2022-12-25T14:35:03.647Z,-5.63
2022-12-25T14:37:41.469Z,-5.56
2022-12-25T14:40:28.179Z,-5.60
2022-12-25T14:43:32.039Z,-5.66
2022-12-25T14:46:07.926Z,-5.64
2022-12-25T14:48:41.895Z,-5.55
2022-12-25T14:51:16.725Z,-5.68
2022-12-25T14:53:49.974Z,-5.70
2022-12-25T14:56:22.897Z,-5.76
2022-12-25T14:58:56.666Z,-5.76
2022-12-25T15:01:29.614Z,-5.71
2022-12-25T15:04:07.396Z,-5.61
2022-12-25T15:06:35.805Z,-5.48
2022-12-25T15:09:14.926Z,-5.49
2022-12-25T15:11:46.329Z,-5.63
2022-12-25T15:14:19.134Z,-5.68
2022-12-25T15:16:50.045Z,-5.59
2022-12-25T15:19:34.771Z,-5.62
2022-12-25T15:22:08.553Z,-5.60
2022-12-25T15:24:39.237Z,-5.55
2022-12-25T15:27:23.172Z,-5.73
2022-12-25T15:30:10.147Z,-5.42
2022-12-25T15:32:41.036Z,-5.38
2022-12-25T15:35:15.262Z,-5.62
2022-12-25T15:37:46.935Z,-5.58
2022-12-25T15:40:16.230Z,-5.54
2022-12-25T15:42:49.980Z,-5.40
2022-12-25T15:45:21.471Z,-5.13
2022-12-25T15:47:53.079Z,-5.13
2022-12-25T15:50:27.118Z,-5.11
2022-12-25T15:52:57.084Z,-5.16
2022-12-25T15:55:41.926Z,-5.07
2022-12-25T15:58:16.365Z,-5.11
2022-12-25T16:00:47.099Z,-5.05
2022-12-25T16:03:17.824Z,-5.01
2022-12-25T16:05:48.001Z,-5.03
2022-12-25T16:08:45.624Z,-5.00
2022-12-25T16:11:18.341Z,-4.96
2022-12-25T16:13:49.237Z,-4.80
2022-12-25T16:16:17.758Z,-4.86
2022-12-25T16:18:50.798Z,-4.80
2022-12-25T16:21:20.700Z,-4.89
2022-12-25T16:23:49.314Z,-4.94
2022-12-25T16:26:18.809Z,-4.86
2022-12-25T16:28:51.303Z,-4.78
2022-12-25T16:31:21.961Z,-4.82
2022-12-25T16:33:52.419Z,-4.83
2022-12-25T16:36:26.735Z,-4.77
2022-12-25T16:38:55.616Z,-4.80
2022-12-25T16:41:26.595Z,-4.81
2022-12-25T16:44:12.021Z,-4.85
2022-12-25T16:46:41.680Z,-4.81
2022-12-25T16:49:10.183Z,-4.70
2022-12-25T16:51:39.727Z,-4.78
2022-12-25T16:54:08.178Z,-4.59
2022-12-25T16:56:39.256Z,-4.67
2022-12-25T16:59:09.579Z,-4.62
2022-12-25T17:01:44.949Z,-4.69
2022-12-25T17:04:16.689Z,-4.59
2022-12-25T17:06:47.739Z,-4.64
2022-12-25T17:09:18.209Z,-4.45
2022-12-25T17:11:46.854Z,-4.43
2022-12-25T17:14:20.340Z,-4.51
2022-12-25T17:16:52.313Z,-4.52
2022-12-25T17:19:23.822Z,-4.52
2022-12-25T17:21:55.747Z,-4.49
2022-12-25T17:24:30.107Z,-4.48
2022-12-25T17:26:58.657Z,-4.58
2022-12-25T17:29:30.043Z,-4.49
2022-12-25T17:32:00.529Z,-4.46
2022-12-25T17:34:30.185Z,-4.49
2022-12-25T17:36:58.758Z,-4.52
2022-12-25T17:39:29.625Z,-4.51
2022-12-25T17:41:58.613Z,-4.53
2022-12-25T17:44:28.796Z,-4.60
2022-12-25T17:46:59.618Z,-4.54
2022-12-25T17:49:30.923Z,-4.51
2022-12-25T17:52:01.688Z,-4.64
2022-12-25T17:54:30.555Z,-4.56
2022-12-25T17:56:58.962Z,-4.52
2022-12-25T17:59:31.432Z,-4.67
2022-12-25T18:02:00.304Z,-4.72
2022-12-25T18:04:28.901Z,-4.67
2022-12-25T18:06:57.737Z,-4.72
2022-12-25T18:09:26.266Z,-4.62
2022-12-25T18:11:58.217Z,-4.75
2022-12-25T18:14:26.849Z,-4.73
2022-12-25T18:17:03.585Z,-4.64
2022-12-25T18:19:32.149Z,-4.67
2022-12-25T18:22:01.102Z,-4.69
2022-12-25T18:24:30.446Z,-4.71
2022-12-25T18:26:59.157Z,-4.79
2022-12-25T18:29:27.924Z,-4.73
2022-12-25T18:31:58.044Z,-4.69
2022-12-25T18:34:27.617Z,-4.71
2022-12-25T18:37:03.014Z,-4.77
2022-12-25T18:39:31.697Z,-4.84
2022-12-25T18:42:18.367Z,-4.80
2022-12-25T18:44:47.113Z,-4.85
2022-12-25T18:47:17.724Z,-4.87
2022-12-25T18:49:46.679Z,-4.76
2022-12-25T18:52:47.853Z,-4.82
2022-12-25T18:55:03.668Z,-4.80
2022-12-25T18:57:33.034Z,-4.80
2022-12-25T19:00:03.224Z,-4.73
2022-12-25T19:02:36.116Z,-4.81
2022-12-25T19:05:05.762Z,-4.76
2022-12-25T19:07:34.546Z,-4.68
2022-12-25T19:10:02.921Z,-4.69
2022-12-25T19:12:33.764Z,-4.69
2022-12-25T19:15:04.612Z,-4.69
2022-12-25T19:17:38.020Z,-4.88
2022-12-25T19:20:13.808Z,-4.68
2022-12-25T19:22:42.329Z,-4.76
2022-12-25T19:25:14.001Z,-4.73
2022-12-25T19:27:45.500Z,-4.76
2022-12-25T19:30:16.292Z,-4.76
2022-12-25T19:32:47.926Z,-4.74
2022-12-25T19:35:19.502Z,-4.85
2022-12-25T19:37:48.733Z,-4.80
2022-12-25T19:40:27.612Z,-4.81
2022-12-25T19:42:58.013Z,-4.85
2022-12-25T19:45:29.504Z,-4.82
2022-12-25T19:48:09.712Z,-4.91
2022-12-25T19:50:47.463Z,-4.67
2022-12-25T19:53:20.569Z,-4.67
2022-12-25T19:56:07.553Z,-4.79
2022-12-25T19:58:40.799Z,-4.67
2022-12-25T20:01:17.845Z,-4.64
2022-12-25T20:03:51.044Z,-4.63
2022-12-25T20:06:37.923Z,-4.74
2022-12-25T20:09:20.863Z,-4.63
2022-12-25T20:11:57.272Z,-4.62
2022-12-25T20:14:49.831Z,-4.65
2022-12-25T20:17:21.793Z,-4.68
2022-12-25T20:20:05.042Z,-4.64
2022-12-25T20:22:37.711Z,-4.52
2022-12-25T20:25:11.236Z,-4.55
2022-12-25T20:27:49.064Z,-4.62
2022-12-25T20:30:24.873Z,-4.62
2022-12-25T20:32:55.366Z,-4.43
2022-12-25T20:35:30.942Z,-4.61
2022-12-25T20:38:01.657Z,-4.58
2022-12-25T20:41:08.052Z,-4.63
2022-12-25T20:43:32.185Z,-4.75
2022-12-25T20:46:10.047Z,-4.67
2022-12-25T20:48:43.572Z,-4.81
2022-12-25T20:51:22.613Z,-4.75
2022-12-25T20:53:51.991Z,-4.82
2022-12-25T20:56:26.559Z,-4.65
2022-12-25T20:59:10.628Z,-4.65
2022-12-25T21:01:39.877Z,-4.55
2022-12-25T21:04:16.403Z,-4.61
2022-12-25T21:06:58.455Z,-4.62
2022-12-25T21:09:26.907Z,-4.65
2022-12-25T21:12:00.715Z,-4.66
2022-12-25T21:14:32.553Z,-4.75
2022-12-25T21:17:00.936Z,-4.60
2022-12-25T21:19:32.459Z,-4.52
2022-12-25T21:22:03.157Z,-4.58
2022-12-25T21:24:34.807Z,-4.53
2022-12-25T21:27:15.720Z,-4.59
2022-12-25T21:29:48.072Z,-4.59
2022-12-25T21:32:38.049Z,-4.52
2022-12-25T21:35:12.517Z,-4.66
2022-12-25T21:37:42.301Z,-4.71
2022-12-25T21:40:16.301Z,-4.77
2022-12-25T21:42:48.943Z,-4.81
2022-12-25T21:45:17.337Z,-4.85
2022-12-25T21:48:01.460Z,-4.72
2022-12-25T21:50:49.191Z,-4.79
2022-12-25T21:53:20.981Z,-4.75
2022-12-25T21:56:00.698Z,-4.81
2022-12-25T21:58:29.323Z,-4.86
2022-12-25T22:00:57.783Z,-4.80
2022-12-25T22:03:26.886Z,-4.66
2022-12-25T22:06:21.139Z,-4.78
2022-12-25T22:08:54.522Z,-4.76
2022-12-25T22:11:45.651Z,-4.66
2022-12-25T22:14:51.585Z,-4.80
2022-12-25T22:17:40.843Z,-4.71
2022-12-25T22:20:11.067Z,-4.81
2022-12-25T22:22:44.359Z,-4.68
2022-12-25T22:25:14.839Z,-4.67
2022-12-25T22:27:46.885Z,-4.67
2022-12-25T22:30:17.173Z,-4.68
2022-12-25T22:32:47.332Z,-4.79
2022-12-25T22:35:18.244Z,-4.68
2022-12-25T22:37:48.454Z,-4.60
2022-12-25T22:40:19.980Z,-4.72
2022-12-25T22:42:48.482Z,-4.72
2022-12-25T22:45:18.722Z,-4.73
2022-12-25T22:47:47.306Z,-4.69
2022-12-25T22:50:21.908Z,-4.73
2022-12-25T22:52:50.340Z,-4.84
2022-12-25T22:55:20.414Z,-4.85
2022-12-25T22:57:52.174Z,-4.74
2022-12-25T23:00:25.197Z,-4.80
2022-12-25T23:02:53.776Z,-4.84
2022-12-25T23:05:23.485Z,-4.77
2022-12-25T23:07:55.842Z,-4.71
2022-12-25T23:10:27.837Z,-4.69
2022-12-25T23:13:13.983Z,-4.63
2022-12-25T23:15:42.466Z,-4.73
2022-12-25T23:18:30.679Z,-4.68
2022-12-25T23:21:18.154Z,-4.77
2022-12-25T23:24:04.022Z,-4.72
2022-12-25T23:26:33.863Z,-4.80
2022-12-25T23:29:19.822Z,-4.74
2022-12-25T23:31:56.282Z,-4.79
2022-12-25T23:34:25.395Z,-4.85
2022-12-25T23:36:53.776Z,-4.78
2022-12-25T23:39:22.324Z,-4.81
2022-12-25T23:41:52.085Z,-4.79
2022-12-25T23:44:20.937Z,-4.84
2022-12-25T23:46:52.621Z,-4.75
2022-12-25T23:49:23.141Z,-4.81
2022-12-25T23:51:52.261Z,-4.76
2022-12-25T23:54:25.453Z,-4.75
2022-12-25T23:56:57.324Z,-4.75
2022-12-25T23:59:28.866Z,-4.74
